Time;durP1;ratioP1;P1;durP2;ratioP2;P2;SDS_P1;SDS_P2;PMS_P1;PMS_P2;Temp;Humidity;BMP_temperature;BMP_pressure;BME280_temperature;BME280_humidity;BME280_pressure;Samples;Min_cycle;Max_cycle;Signal;HPM_P1;HPM_P2
2022/09/11 00:01:27;;;;;;;3.20;1.30;;;13.20;99.90;;;;;;5028525;28;20049;-78
2022/09/11 00:03:55;;;;;;;3.28;1.23;;;13.20;99.90;;;;;;5028106;28;20048;-82
2022/09/11 00:06:21;;;;;;;3.10;1.33;;;13.20;99.90;;;;;;5028157;28;20037;-82
2022/09/11 00:08:48;;;;;;;3.30;1.30;;;13.20;99.90;;;;;;5028475;28;20044;-82
2022/09/11 00:11:17;;;;;;;3.47;1.10;;;13.20;99.90;;;;;;5028145;28;20513;-82
2022/09/11 00:13:45;;;;;;;6.45;1.25;;;13.30;99.90;;;;;;5028214;28;20026;-82
2022/09/11 00:16:43;;;;;;;6.10;1.42;;;13.20;99.90;;;;;;5028442;28;20142;-82
2022/09/11 00:19:17;;;;;;;3.25;1.10;;;13.20;99.90;;;;;;5023669;28;20033;-82
2022/09/11 00:21:44;;;;;;;5.15;1.63;;;13.20;99.90;;;;;;5028321;28;20637;-83
2022/09/11 00:24:10;;;;;;;1.90;1.20;;;13.20;99.90;;;;;;5027635;28;20052;-82
2022/09/11 00:26:39;;;;;;;3.38;1.30;;;13.20;99.90;;;;;;5028119;28;20071;-83
2022/09/11 00:29:05;;;;;;;5.10;1.20;;;13.20;99.90;;;;;;5027930;28;20472;-82
2022/09/11 00:31:31;;;;;;;4.90;1.80;;;13.20;99.90;;;;;;5027612;28;20037;-77
2022/09/11 00:33:57;;;;;;;3.00;1.20;;;13.20;99.90;;;;;;5027719;28;20032;-77
2022/09/11 00:36:25;;;;;;;2.60;1.25;;;13.20;99.90;;;;;;5027668;28;20026;-77
2022/09/11 00:38:51;;;;;;;2.35;1.20;;;13.20;99.90;;;;;;5028150;28;20481;-77
2022/09/11 00:41:35;;;;;;;4.65;1.27;;;13.20;99.90;;;;;;5028273;28;20033;-77
2022/09/11 00:44:14;;;;;;;2.42;1.23;;;13.30;99.90;;;;;;5027653;28;20381;-78
2022/09/11 00:46:43;;;;;;;3.70;1.38;;;13.30;99.90;;;;;;5027449;28;20044;-77
2022/09/11 00:49:41;;;;;;;4.78;1.33;;;13.30;99.90;;;;;;5027401;28;20042;-77
2022/09/11 00:52:09;;;;;;;3.75;1.40;;;13.20;99.90;;;;;;5027130;28;20478;-77
2022/09/11 00:54:45;;;;;;;6.90;1.50;;;13.30;99.90;;;;;;5026789;28;20026;-77
2022/09/11 00:57:11;;;;;;;2.60;1.13;;;13.30;99.90;;;;;;5027183;28;20045;-77
2022/09/11 00:59:40;;;;;;;4.38;1.30;;;13.30;99.90;;;;;;5027169;28;20044;-77
2022/09/11 01:02:12;;;;;;;4.40;1.23;;;13.30;99.90;;;;;;5027482;28;20108;-77
2022/09/11 01:04:37;;;;;;;4.90;1.13;;;13.30;99.90;;;;;;5026984;28;20029;-77
2022/09/11 01:07:03;;;;;;;3.08;1.40;;;13.30;99.90;;;;;;5027025;28;20036;-77
2022/09/11 01:09:31;;;;;;;3.47;1.40;;;13.30;99.90;;;;;;5027017;28;20360;-77
2022/09/11 01:12:05;;;;;;;4.00;1.60;;;13.30;99.90;;;;;;5027457;28;20099;-77
2022/09/11 01:14:59;;;;;;;3.70;1.50;;;13.30;99.90;;;;;;5027058;28;20033;-77
2022/09/11 01:17:38;;;;;;;5.93;1.45;;;13.20;99.90;;;;;;5026893;28;20060;-77
2022/09/11 01:20:22;;;;;;;5.47;1.70;;;13.30;99.90;;;;;;5027547;28;20060;-77
2022/09/11 01:22:54;;;;;;;4.67;1.40;;;13.20;99.90;;;;;;5027132;28;20344;-77
2022/09/11 01:25:26;;;;;;;2.78;1.30;;;13.30;99.90;;;;;;5026994;28;20027;-77
2022/09/11 01:27:53;;;;;;;2.90;1.55;;;13.20;99.90;;;;;;5027166;28;20063;-77
2022/09/11 01:30:27;;;;;;;3.67;1.60;;;13.20;99.90;;;;;;5026814;28;20033;-77
2022/09/11 01:33:14;;;;;;;4.53;1.35;;;13.20;99.90;;;;;;5027046;28;20309;-77
2022/09/11 01:36:01;;;;;;;3.80;1.35;;;13.20;99.90;;;;;;5026942;28;20039;-77
2022/09/11 01:38:35;;;;;;;3.28;1.27;;;13.20;99.90;;;;;;5025779;28;20441;-77
2022/09/11 01:41:18;;;;;;;3.57;1.50;;;13.20;99.90;;;;;;5026894;28;20437;-77
2022/09/11 01:44:02;;;;;;;6.28;1.65;;;13.20;99.90;;;;;;5027073;28;20028;-77
2022/09/11 01:46:32;;;;;;;4.82;1.45;;;13.20;99.90;;;;;;5027336;28;20868;-77
2022/09/11 01:49:06;;;;;;;4.10;1.27;;;13.10;99.90;;;;;;5027240;28;20029;-77
2022/09/11 01:51:35;;;;;;;1.83;1.13;;;13.20;99.90;;;;;;5027652;28;20512;-77
2022/09/11 01:54:03;;;;;;;5.53;1.52;;;13.20;99.90;;;;;;5026946;28;20025;-77
2022/09/11 01:56:37;;;;;;;6.43;1.88;;;13.20;99.90;;;;;;5026283;28;20050;-77
2022/09/11 01:59:06;;;;;;;4.03;1.30;;;13.20;99.90;;;;;;5027163;28;20061;-77
2022/09/11 02:01:37;;;;;;;11.63;1.67;;;13.20;99.90;;;;;;5026268;28;20064;-76
2022/09/11 02:04:09;;;;;;;3.28;1.30;;;13.20;99.90;;;;;;5026896;28;20061;-77
2022/09/11 02:07:09;;;;;;;3.65;1.42;;;13.20;99.90;;;;;;5028228;28;20056;-78
2022/09/11 02:09:44;;;;;;;3.13;1.40;;;13.20;99.90;;;;;;5030306;28;20124;-78
2022/09/11 02:12:13;;;;;;;5.05;1.52;;;13.20;99.90;;;;;;5030281;28;20425;-78
2022/09/11 02:14:52;;;;;;;5.03;1.92;;;13.20;99.90;;;;;;5031578;28;20111;-78
2022/09/11 02:17:42;;;;;;;5.13;1.27;;;13.20;99.90;;;;;;5031175;28;20507;-78
2022/09/11 02:20:09;;;;;;;3.78;1.35;;;13.20;99.90;;;;;;5031593;28;20037;-78
2022/09/11 02:22:35;;;;;;;4.63;1.50;;;13.20;99.90;;;;;;5031678;28;20041;-78
2022/09/11 02:25:02;;;;;;;2.42;1.30;;;13.20;99.90;;;;;;5031675;28;20470;-78
2022/09/11 02:27:30;;;;;;;5.32;1.58;;;13.20;99.90;;;;;;5030856;28;20057;-78
2022/09/11 02:29:57;;;;;;;3.25;1.50;;;13.30;99.90;;;;;;5030573;28;20034;-78
2022/09/11 02:32:25;;;;;;;3.53;1.30;;;13.30;99.90;;;;;;5030994;28;20022;-78
2022/09/11 02:34:54;;;;;;;4.65;1.90;;;13.20;99.90;;;;;;5030814;28;20031;-77
2022/09/11 02:37:44;;;;;;;4.07;1.30;;;13.20;99.90;;;;;;5031587;28;20029;-78
2022/09/11 02:40:28;;;;;;;5.13;1.33;;;13.30;99.90;;;;;;5031232;28;20037;-78
2022/09/11 02:43:18;;;;;;;5.97;1.60;;;13.30;99.90;;;;;;5030662;28;20036;-78
2022/09/11 02:46:11;;;;;;;5.47;1.35;;;13.30;99.90;;;;;;5029887;28;20032;-83
2022/09/11 02:49:05;;;;;;;2.55;1.20;;;13.30;99.90;;;;;;5028175;28;20033;-82
2022/09/11 02:51:47;;;;;;;3.25;1.30;;;13.30;99.90;;;;;;5029540;28;20033;-82
2022/09/11 02:54:39;;;;;;;6.00;1.40;;;13.40;99.90;;;;;;5029431;28;20530;-82
2022/09/11 02:57:33;;;;;;;4.47;1.45;;;13.40;99.90;;;;;;5029384;28;20406;-82
2022/09/11 03:00:01;;;;;;;6.72;1.35;;;13.40;99.90;;;;;;5028601;28;20045;-83
2022/09/11 03:02:29;;;;;;;6.13;1.40;;;13.30;99.90;;;;;;5029323;28;20475;-83
2022/09/11 03:04:55;;;;;;;3.85;1.30;;;13.40;99.90;;;;;;5028793;28;20077;-83
2022/09/11 03:07:21;;;;;;;5.05;1.45;;;13.40;99.90;;;;;;5028875;28;20033;-82
2022/09/11 03:09:47;;;;;;;3.42;1.40;;;13.40;99.90;;;;;;5029387;28;20042;-82
2022/09/11 03:12:12;;;;;;;3.58;1.30;;;13.40;99.90;;;;;;5029243;28;20025;-83
2022/09/11 03:14:38;;;;;;;6.03;1.60;;;13.40;99.90;;;;;;5028888;28;20064;-83
2022/09/11 03:17:04;;;;;;;3.08;1.40;;;13.40;99.90;;;;;;5028986;28;20030;-83
2022/09/11 03:19:30;;;;;;;4.60;1.30;;;13.40;99.90;;;;;;5027756;28;20033;-83
2022/09/11 03:21:56;;;;;;;4.60;1.33;;;13.40;99.90;;;;;;5029188;28;20037;-83
2022/09/11 03:24:21;;;;;;;5.20;1.50;;;13.30;99.90;;;;;;5029491;28;20033;-83
2022/09/11 03:26:47;;;;;;;4.07;1.30;;;13.40;99.90;;;;;;5029319;28;20056;-82
2022/09/11 03:29:13;;;;;;;5.07;1.30;;;13.40;99.90;;;;;;5029037;28;20030;-82
2022/09/11 03:31:38;;;;;;;4.28;1.50;;;13.30;99.90;;;;;;5029180;28;20538;-83
2022/09/11 03:34:05;;;;;;;2.65;1.80;;;13.30;99.90;;;;;;5028569;28;20517;-82
2022/09/11 03:36:31;;;;;;;5.32;1.40;;;13.30;99.90;;;;;;5029010;28;20018;-82
2022/09/11 03:38:57;;;;;;;4.57;1.40;;;13.30;99.90;;;;;;5028710;28;20071;-83
2022/09/11 03:41:24;;;;;;;3.75;1.40;;;13.30;99.90;;;;;;5028782;28;20501;-83
2022/09/11 03:43:50;;;;;;;6.00;1.70;;;13.30;99.90;;;;;;5028590;28;20505;-83
2022/09/11 03:46:16;;;;;;;4.25;1.45;;;13.30;99.90;;;;;;5028910;28;20033;-82
2022/09/11 03:48:44;;;;;;;4.75;1.35;;;13.30;99.90;;;;;;5028618;28;20486;-83
2022/09/11 03:51:10;;;;;;;3.63;1.55;;;13.30;99.90;;;;;;5028455;28;20026;-83
2022/09/11 03:53:37;;;;;;;4.25;1.38;;;13.30;99.90;;;;;;5027595;28;20033;-83
2022/09/11 03:56:03;;;;;;;4.47;1.48;;;13.30;99.90;;;;;;5028206;28;20068;-83
2022/09/11 03:58:29;;;;;;;3.20;1.30;;;13.30;99.90;;;;;;5027789;28;20026;-83
2022/09/11 04:00:55;;;;;;;5.72;1.33;;;13.30;99.90;;;;;;5028309;28;20036;-82
2022/09/11 04:03:20;;;;;;;3.42;1.33;;;13.30;99.90;;;;;;5028291;28;20470;-82
2022/09/11 04:06:01;;;;;;;3.78;1.38;;;13.30;99.90;;;;;;5028226;28;20068;-83
2022/09/11 04:08:32;;;;;;;3.00;1.20;;;13.30;99.90;;;;;;5028223;28;20033;-83
2022/09/11 04:10:59;;;;;;;3.35;1.67;;;13.30;99.90;;;;;;5028315;28;20097;-82
2022/09/11 04:13:26;;;;;;;4.88;1.35;;;13.30;99.90;;;;;;5028201;28;20029;-83
2022/09/11 04:15:52;;;;;;;5.50;1.45;;;13.30;99.90;;;;;;5027973;28;20029;-81
2022/09/11 04:18:18;;;;;;;6.38;1.60;;;13.30;99.90;;;;;;5027309;28;20025;-82
2022/09/11 04:20:43;;;;;;;3.67;1.52;;;13.30;99.90;;;;;;5027910;28;20029;-82
2022/09/11 04:23:09;;;;;;;4.35;1.50;;;13.30;99.90;;;;;;5028443;28;20057;-82
2022/09/11 04:25:34;;;;;;;5.07;1.95;;;13.30;99.90;;;;;;5026993;28;20493;-82
2022/09/11 04:28:00;;;;;;;3.67;1.60;;;13.30;99.90;;;;;;5027713;28;20434;-82
2022/09/11 04:30:26;;;;;;;2.00;1.20;;;13.30;99.90;;;;;;5027462;28;20381;-82
2022/09/11 04:32:51;;;;;;;2.80;1.60;;;13.30;99.90;;;;;;5027335;28;20039;-82
2022/09/11 04:35:17;;;;;;;6.38;1.65;;;13.30;99.90;;;;;;5028170;28;20033;-82
2022/09/11 04:37:43;;;;;;;5.70;1.70;;;13.30;99.90;;;;;;5028828;28;20030;-82
2022/09/11 04:40:09;;;;;;;4.55;1.50;;;13.30;99.90;;;;;;5027659;28;20516;-82
2022/09/11 04:42:34;;;;;;;3.65;1.60;;;13.30;99.90;;;;;;5027680;28;20091;-82
2022/09/11 04:45:00;;;;;;;3.47;1.48;;;13.30;99.90;;;;;;5027901;28;20470;-82
2022/09/11 04:47:25;;;;;;;3.65;1.65;;;13.30;99.90;;;;;;5027739;28;20372;-82
2022/09/11 04:49:51;;;;;;;5.68;1.30;;;13.30;99.90;;;;;;5027383;28;20068;-82
2022/09/11 04:52:17;;;;;;;4.30;1.40;;;13.40;99.90;;;;;;5027775;28;20060;-82
2022/09/11 04:54:42;;;;;;;3.53;1.40;;;13.30;99.90;;;;;;5027551;28;20033;-82
2022/09/11 04:57:08;;;;;;;3.17;1.27;;;13.40;99.90;;;;;;5027102;28;20128;-82
2022/09/11 04:59:34;;;;;;;3.22;1.40;;;13.40;99.90;;;;;;5026928;28;20029;-82
2022/09/11 05:02:00;;;;;;;6.32;1.55;;;13.40;99.90;;;;;;5027432;28;20031;-82
2022/09/11 05:04:25;;;;;;;5.18;1.50;;;13.40;99.90;;;;;;5027038;28;20037;-82
2022/09/11 05:06:51;;;;;;;4.90;1.27;;;13.40;99.90;;;;;;5027736;28;20036;-82
2022/09/11 05:09:17;;;;;;;2.72;1.40;;;13.50;99.90;;;;;;5027762;28;20030;-82
2022/09/11 05:11:43;;;;;;;4.75;1.38;;;13.40;99.90;;;;;;5026807;28;20478;-82
2022/09/11 05:14:08;;;;;;;4.03;1.33;;;13.40;99.90;;;;;;5027347;28;20043;-82
2022/09/11 05:16:35;;;;;;;5.07;1.45;;;13.40;99.90;;;;;;5027688;28;20064;-82
2022/09/11 05:19:05;;;;;;;3.35;1.90;;;13.30;99.90;;;;;;5026812;28;20032;-82
2022/09/11 05:21:32;;;;;;;4.70;1.40;;;13.30;99.90;;;;;;5027133;28;20060;-82
2022/09/11 05:24:00;;;;;;;4.80;1.63;;;13.30;99.90;;;;;;5027461;28;20033;-82
2022/09/11 05:26:28;;;;;;;5.10;1.70;;;13.30;99.90;;;;;;5027181;28;20133;-82
2022/09/11 05:28:58;;;;;;;3.80;1.35;;;13.40;99.90;;;;;;5027534;28;20314;-82
2022/09/11 05:31:24;;;;;;;4.32;1.55;;;13.40;99.90;;;;;;5027105;28;20033;-82
2022/09/11 05:33:51;;;;;;;7.15;2.28;;;13.50;99.90;;;;;;5027030;28;20075;-82
2022/09/11 05:36:16;;;;;;;3.65;1.33;;;13.50;99.90;;;;;;5026944;28;20027;-82
2022/09/11 05:38:42;;;;;;;3.30;1.33;;;13.50;99.90;;;;;;5027225;28;20345;-82
2022/09/11 05:41:10;;;;;;;4.95;1.98;;;13.50;99.90;;;;;;5027386;28;20029;-82
2022/09/11 05:43:36;;;;;;;3.30;1.60;;;13.50;99.90;;;;;;5031683;28;20057;-82
2022/09/11 05:46:03;;;;;;;3.33;1.20;;;13.50;99.90;;;;;;5031244;28;20478;-82
2022/09/11 05:48:30;;;;;;;5.63;1.80;;;13.50;99.90;;;;;;5031132;28;20041;-82
2022/09/11 05:51:01;;;;;;;2.03;1.20;;;13.50;99.90;;;;;;5030865;28;20041;-82
2022/09/11 05:53:31;;;;;;;3.00;1.20;;;13.50;99.90;;;;;;5031178;28;20367;-82
2022/09/11 05:55:59;;;;;;;4.10;1.45;;;13.60;99.90;;;;;;5029387;28;20140;-82
2022/09/11 05:58:29;;;;;;;4.35;1.45;;;13.70;99.90;;;;;;5031190;28;20018;-82
2022/09/11 06:01:07;;;;;;;4.05;1.48;;;13.70;99.90;;;;;;5030795;28;20042;-82
2022/09/11 06:03:33;;;;;;;2.55;1.60;;;13.80;99.90;;;;;;5031200;28;20902;-82
2022/09/11 06:06:00;;;;;;;3.13;1.30;;;13.80;99.90;;;;;;5030195;28;20029;-82
2022/09/11 06:08:25;;;;;;;3.80;1.50;;;13.90;99.90;;;;;;5030044;28;20095;-82
2022/09/11 06:10:51;;;;;;;4.32;1.65;;;13.90;99.90;;;;;;5030525;28;20029;-82
2022/09/11 06:13:16;;;;;;;3.75;1.25;;;13.90;99.90;;;;;;5032307;28;20028;-77
2022/09/11 06:15:46;;;;;;;4.20;1.50;;;14.00;99.90;;;;;;5032512;28;20033;-77
2022/09/11 06:18:12;;;;;;;5.97;1.60;;;14.10;99.90;;;;;;5031539;28;20101;-77
2022/09/11 06:20:38;;;;;;;2.95;1.42;;;14.10;99.90;;;;;;5032047;28;20028;-77
2022/09/11 06:23:03;;;;;;;4.65;1.27;;;14.10;99.90;;;;;;5031785;28;20470;-77
2022/09/11 06:25:29;;;;;;;3.25;1.40;;;14.20;99.90;;;;;;5032072;28;20033;-77
2022/09/11 06:27:55;;;;;;;4.28;1.50;;;14.20;99.90;;;;;;5031656;28;20096;-77
2022/09/11 06:30:21;;;;;;;3.25;1.38;;;14.30;99.90;;;;;;5031705;28;20447;-77
2022/09/11 06:32:50;;;;;;;4.68;1.50;;;14.30;99.90;;;;;;5031741;28;20040;-77
2022/09/11 06:35:16;;;;;;;3.13;1.40;;;14.40;99.90;;;;;;5031644;28;20041;-76
2022/09/11 06:37:41;;;;;;;5.40;1.45;;;14.30;99.90;;;;;;5031542;28;20095;-77
2022/09/11 06:40:07;;;;;;;3.45;1.35;;;14.30;99.90;;;;;;5031911;28;20592;-77
2022/09/11 06:42:33;;;;;;;3.90;1.30;;;14.30;99.90;;;;;;5031566;28;20442;-77
2022/09/11 06:44:59;;;;;;;3.72;1.30;;;14.40;99.90;;;;;;5031156;28;20033;-77
2022/09/11 06:47:24;;;;;;;3.83;1.60;;;14.50;99.90;;;;;;5031061;28;20030;-77
2022/09/11 06:49:50;;;;;;;4.05;1.42;;;14.40;99.90;;;;;;5031094;28;20482;-77
2022/09/11 06:52:15;;;;;;;5.43;1.30;;;14.50;99.90;;;;;;5030213;28;20463;-77
2022/09/11 06:54:41;;;;;;;3.90;1.83;;;14.50;99.90;;;;;;5030827;28;20033;-77
2022/09/11 06:57:06;;;;;;;3.92;1.70;;;14.50;99.90;;;;;;5031364;28;20379;-77
2022/09/11 06:59:32;;;;;;;3.45;1.55;;;14.50;99.90;;;;;;5031487;28;20338;-76
2022/09/11 07:01:59;;;;;;;4.95;1.50;;;14.60;99.90;;;;;;5030916;28;20516;-77
2022/09/11 07:04:26;;;;;;;2.40;1.40;;;14.60;99.90;;;;;;5031756;28;20053;-77
2022/09/11 07:06:52;;;;;;;5.72;1.88;;;14.60;99.90;;;;;;5030863;28;20029;-77
2022/09/11 07:09:17;;;;;;;6.65;1.70;;;14.70;99.90;;;;;;5031420;28;20025;-77
2022/09/11 07:11:45;;;;;;;4.18;1.48;;;14.80;99.90;;;;;;5031634;28;20367;-76
2022/09/11 07:14:11;;;;;;;4.80;1.48;;;14.80;99.90;;;;;;5030882;28;20088;-77
2022/09/11 07:16:36;;;;;;;3.08;1.50;;;14.90;99.90;;;;;;5031256;28;20030;-77
2022/09/11 07:19:03;;;;;;;3.33;1.50;;;14.90;99.90;;;;;;5031463;28;20528;-78
2022/09/11 07:21:29;;;;;;;5.63;1.60;;;14.90;99.90;;;;;;5030336;28;20033;-78
2022/09/11 07:23:57;;;;;;;3.28;1.60;;;14.90;99.90;;;;;;5030756;28;20099;-77
2022/09/11 07:26:26;;;;;;;7.88;2.00;;;15.00;99.90;;;;;;5030345;28;20029;-78
2022/09/11 07:28:53;;;;;;;3.88;1.70;;;14.90;99.90;;;;;;5030272;28;20509;-77
2022/09/11 07:31:22;;;;;;;3.03;1.70;;;14.90;99.90;;;;;;5030187;28;20565;-78
2022/09/11 07:33:49;;;;;;;4.95;1.60;;;14.80;99.90;;;;;;5030388;28;20441;-78
2022/09/11 07:36:19;;;;;;;5.40;1.63;;;14.90;99.90;;;;;;5029780;28;20497;-77
2022/09/11 07:38:46;;;;;;;3.92;1.77;;;14.90;99.90;;;;;;5030341;28;20069;-77
2022/09/11 07:41:13;;;;;;;5.70;1.55;;;14.90;99.90;;;;;;5030612;28;20087;-78
2022/09/11 07:43:40;;;;;;;5.10;1.67;;;15.00;99.90;;;;;;5030914;28;20473;-77
2022/09/11 07:46:08;;;;;;;4.35;1.80;;;15.00;99.90;;;;;;5031091;28;20513;-77
2022/09/11 07:48:34;;;;;;;3.30;1.95;;;15.00;99.90;;;;;;5029701;28;20044;-83
2022/09/11 07:51:05;;;;;;;5.03;2.00;;;15.00;99.90;;;;;;5029050;28;20049;-83
2022/09/11 07:53:36;;;;;;;3.15;1.70;;;15.00;99.90;;;;;;5027701;28;20037;-83
2022/09/11 07:56:10;;;;;;;3.88;1.80;;;15.10;99.90;;;;;;5028677;28;20050;-83
2022/09/11 07:58:38;;;;;;;3.95;2.00;;;15.10;99.90;;;;;;5028448;28;20037;-82
2022/09/11 08:01:04;;;;;;;6.28;2.15;;;15.10;99.90;;;;;;5028537;28;20540;-82
2022/09/11 08:03:31;;;;;;;3.80;2.22;;;15.20;99.90;;;;;;5028028;28;20112;-83
2022/09/11 08:05:59;;;;;;;4.18;1.95;;;15.20;99.90;;;;;;5028150;28;20415;-83
2022/09/11 08:08:27;;;;;;;5.43;2.33;;;15.20;99.90;;;;;;5028430;28;20402;-82
2022/09/11 08:10:56;;;;;;;4.93;1.98;;;15.10;99.90;;;;;;5026874;28;20065;-82
2022/09/11 08:13:23;;;;;;;6.50;2.22;;;15.10;99.90;;;;;;5026986;28;20191;-82
2022/09/11 08:15:49;;;;;;;6.22;3.05;;;15.10;99.90;;;;;;5028741;28;20044;-82
2022/09/11 08:18:15;;;;;;;3.42;2.33;;;15.20;99.90;;;;;;5028623;28;20462;-83
2022/09/11 08:20:41;;;;;;;4.63;2.40;;;15.30;99.90;;;;;;5028064;28;20044;-82
2022/09/11 08:23:07;;;;;;;5.18;2.40;;;15.30;99.90;;;;;;5028210;28;20164;-82
2022/09/11 08:25:35;;;;;;;6.55;2.15;;;15.40;99.90;;;;;;5028200;28;20445;-82
2022/09/11 08:28:01;;;;;;;7.57;2.80;;;15.30;99.90;;;;;;5028084;28;20053;-82
2022/09/11 08:30:27;;;;;;;6.07;2.50;;;15.30;99.90;;;;;;5027950;28;20064;-82
2022/09/11 08:32:52;;;;;;;4.95;2.50;;;15.20;99.90;;;;;;5027945;28;20075;-82
2022/09/11 08:35:18;;;;;;;5.10;2.63;;;15.10;99.90;;;;;;5028468;28;20506;-80
2022/09/11 08:37:43;;;;;;;4.07;2.60;;;15.10;99.90;;;;;;5027951;28;20545;-80
2022/09/11 08:40:10;;;;;;;6.43;3.08;;;15.10;99.90;;;;;;5028089;28;20029;-80
2022/09/11 08:42:39;;;;;;;3.65;2.63;;;15.10;99.90;;;;;;5028235;28;20371;-80
2022/09/11 08:45:06;;;;;;;3.95;2.47;;;15.30;99.90;;;;;;5028190;28;20029;-79
2022/09/11 08:47:35;;;;;;;7.60;2.92;;;15.50;99.90;;;;;;5027816;28;20033;-80
2022/09/11 08:50:04;;;;;;;6.28;3.10;;;15.50;99.90;;;;;;5027718;28;20151;-80
2022/09/11 08:52:32;;;;;;;3.35;2.45;;;15.60;99.90;;;;;;5027924;28;20040;-80
2022/09/11 08:54:58;;;;;;;5.07;3.03;;;15.70;99.90;;;;;;5028423;28;20030;-80
2022/09/11 08:57:44;;;;;;;5.55;2.80;;;15.80;99.90;;;;;;5028213;28;20049;-80
2022/09/11 09:00:19;;;;;;;4.32;2.72;;;16.00;99.90;;;;;;5028047;28;20037;-80
2022/09/11 09:03:07;;;;;;;4.25;2.58;;;16.00;99.90;;;;;;5028148;28;20044;-80
2022/09/11 09:06:07;;;;;;;6.18;2.80;;;16.10;99.90;;;;;;5027605;28;20135;-80
2022/09/11 09:08:43;;;;;;;4.90;2.80;;;16.20;99.90;;;;;;5027793;28;20025;-80
2022/09/11 09:11:25;;;;;;;3.25;2.67;;;16.20;99.90;;;;;;5027619;28;20469;-80
2022/09/11 09:14:19;;;;;;;5.13;3.03;;;16.30;99.90;;;;;;5027705;28;20055;-80
2022/09/11 09:17:13;;;;;;;6.35;2.85;;;16.20;99.90;;;;;;5026366;28;20060;-80
2022/09/11 09:19:55;;;;;;;7.65;2.95;;;16.30;99.90;;;;;;5026952;28;20018;-80
2022/09/11 09:22:47;;;;;;;5.28;3.05;;;16.20;99.90;;;;;;5027571;28;20056;-79
2022/09/11 09:25:17;;;;;;;6.53;3.22;;;16.20;99.90;;;;;;5027492;28;20107;-80
2022/09/11 09:27:48;;;;;;;5.65;3.13;;;16.20;99.90;;;;;;5027375;28;20036;-80
2022/09/11 09:30:17;;;;;;;8.52;3.22;;;16.20;99.90;;;;;;5027162;28;20120;-80
2022/09/11 09:33:01;;;;;;;6.32;3.15;;;16.20;99.90;;;;;;5027362;28;20022;-80
2022/09/11 09:35:44;;;;;;;4.25;3.20;;;16.20;99.90;;;;;;5027148;28;20033;-80
2022/09/11 09:38:19;;;;;;;4.40;3.50;;;16.40;99.90;;;;;;5027086;28;20045;-80
2022/09/11 09:41:00;;;;;;;5.60;3.25;;;16.40;99.90;;;;;;5026760;28;20032;-80
2022/09/11 09:43:51;;;;;;;6.85;3.42;;;16.40;99.90;;;;;;5026601;28;20387;-80
2022/09/11 09:46:28;;;;;;;3.53;2.80;;;16.50;99.90;;;;;;5027114;28;20528;-80
2022/09/11 09:48:54;;;;;;;7.95;3.47;;;16.60;99.90;;;;;;5026954;28;20030;-80
2022/09/11 09:51:20;;;;;;;4.65;3.15;;;16.60;99.90;;;;;;5027181;28;20025;-80
2022/09/11 09:53:54;;;;;;;6.35;3.63;;;16.50;99.90;;;;;;5027268;28;20088;-80
2022/09/11 09:56:22;;;;;;;6.22;2.80;;;16.50;99.90;;;;;;5026803;28;20061;-80
2022/09/11 09:58:59;;;;;;;4.18;2.92;;;16.40;99.90;;;;;;5027661;28;20022;-79
2022/09/11 10:01:46;;;;;;;6.35;3.92;;;16.40;99.90;;;;;;5026528;28;20374;-80
2022/09/11 10:04:24;;;;;;;4.70;3.42;;;16.40;99.90;;;;;;5027008;28;20029;-80
2022/09/11 10:06:54;;;;;;;5.75;3.50;;;16.40;99.90;;;;;;5026991;28;20022;-80
2022/09/11 10:09:26;;;;;;;5.35;3.58;;;16.30;99.90;;;;;;5027038;28;20029;-80
2022/09/11 10:11:54;;;;;;;6.88;3.97;;;16.20;99.90;;;;;;5026941;28;20029;-81
2022/09/11 10:14:21;;;;;;;5.13;3.50;;;16.10;99.90;;;;;;5026680;28;20156;-80
2022/09/11 10:16:49;;;;;;;5.35;4.03;;;16.10;99.90;;;;;;5027120;28;20021;-80
2022/09/11 10:19:36;;;;;;;5.95;4.13;;;16.00;99.90;;;;;;5027192;28;20161;-80
2022/09/11 10:22:28;;;;;;;6.63;3.88;;;15.80;99.90;;;;;;5027073;28;20045;-80
2022/09/11 10:25:00;;;;;;;4.32;3.80;;;15.70;99.90;;;;;;5026314;28;20030;-80
2022/09/11 10:27:29;;;;;;;7.85;3.67;;;15.70;99.90;;;;;;5026636;28;20065;-80
2022/09/11 10:29:56;;;;;;;6.57;4.05;;;15.70;99.90;;;;;;5030667;28;20091;-80
2022/09/11 10:32:23;;;;;;;3.92;3.53;;;15.60;99.90;;;;;;5030913;28;20529;-80
2022/09/11 10:34:50;;;;;;;4.22;3.72;;;15.70;99.90;;;;;;5028926;28;20116;-80
2022/09/11 10:37:26;;;;;;;5.25;3.58;;;15.80;99.90;;;;;;5030430;28;20049;-80
2022/09/11 10:40:07;;;;;;;3.65;3.20;;;16.00;99.90;;;;;;5030176;28;20389;-80
2022/09/11 10:42:34;;;;;;;6.07;3.22;;;16.30;99.90;;;;;;5030352;28;20021;-80
2022/09/11 10:45:15;;;;;;;4.50;3.22;;;16.50;99.90;;;;;;5029832;28;20382;-80
2022/09/11 10:47:42;;;;;;;4.43;3.63;;;16.70;99.90;;;;;;5030368;28;20033;-80
2022/09/11 10:50:16;;;;;;;3.95;3.55;;;16.80;99.90;;;;;;5029680;28;20036;-80
2022/09/11 10:52:57;;;;;;;6.63;3.58;;;16.70;99.90;;;;;;5030611;28;20053;-80
2022/09/11 10:55:26;;;;;;;4.35;3.55;;;16.70;99.90;;;;;;5030369;28;20090;-80
2022/09/11 10:57:54;;;;;;;6.03;3.90;;;16.60;99.90;;;;;;5030252;28;20071;-80
2022/09/11 11:00:30;;;;;;;4.03;3.53;;;16.50;99.90;;;;;;5030788;28;20533;-80
2022/09/11 11:03:11;;;;;;;4.60;3.40;;;16.60;99.90;;;;;;5030920;28;20035;-79
2022/09/11 11:05:42;;;;;;;5.82;3.15;;;16.80;99.90;;;;;;5029943;28;20121;-80
2022/09/11 11:08:46;;;;;;;4.28;3.20;;;17.00;99.90;;;;;;5030289;28;20132;-80
2022/09/11 11:11:32;;;;;;;7.07;3.10;;;17.20;99.90;;;;;;5026513;28;20553;-81
2022/09/11 11:14:17;;;;;;;4.65;3.40;;;17.20;99.90;;;;;;5029223;28;20047;-77
2022/09/11 11:16:56;;;;;;;7.75;3.85;;;17.20;99.90;;;;;;5029724;28;20053;-77
2022/09/11 11:19:53;;;;;;;7.05;3.92;;;17.20;99.90;;;;;;5029358;28;20026;-77
2022/09/11 11:22:27;;;;;;;8.70;4.78;;;17.00;99.90;;;;;;5024778;28;20575;-78
2022/09/11 11:25:29;;;;;;;10.45;5.57;;;16.80;99.90;;;;;;5029413;28;20068;-78
2022/09/11 11:28:22;;;;;;;7.15;5.43;;;16.50;99.90;;;;;;5029340;28;20423;-76
2022/09/11 11:31:14;;;;;;;8.50;5.22;;;16.30;99.90;;;;;;5029395;28;20420;-77
2022/09/11 11:33:54;;;;;;;5.82;5.22;;;16.10;99.90;;;;;;5018169;28;20196;-77
2022/09/11 11:36:46;;;;;;;6.97;5.55;;;16.10;99.90;;;;;;5028748;28;20167;-77
2022/09/11 11:39:18;;;;;;;5.10;4.07;;;16.00;99.90;;;;;;5027949;28;20037;-76
2022/09/11 11:42:06;;;;;;;5.00;3.83;;;16.00;99.90;;;;;;5028772;28;20414;-76
2022/09/11 11:44:47;;;;;;;4.68;3.35;;;15.90;99.90;;;;;;5028676;28;20026;-76
2022/09/11 11:47:15;;;;;;;6.95;3.00;;;16.00;99.90;;;;;;5029006;28;20036;-76
2022/09/11 11:50:00;;;;;;;3.92;3.03;;;16.10;99.90;;;;;;5027093;28;20069;-76
2022/09/11 11:52:37;;;;;;;5.38;3.35;;;16.20;99.90;;;;;;5029128;28;20076;-76
2022/09/11 11:55:13;;;;;;;4.82;3.22;;;16.30;99.90;;;;;;5028229;28;20091;-76
2022/09/11 11:57:41;;;;;;;5.00;3.72;;;16.40;99.90;;;;;;5028828;28;20092;-76
2022/09/11 12:00:13;;;;;;;4.30;3.90;;;16.50;99.90;;;;;;5028282;28;20107;-76
2022/09/11 12:02:54;;;;;;;5.18;4.18;;;16.70;99.90;;;;;;5027380;28;20060;-76
2022/09/11 12:05:27;;;;;;;4.55;3.92;;;16.90;99.90;;;;;;5028870;28;20374;-76
2022/09/11 12:07:52;;;;;;;4.22;3.40;;;17.20;99.90;;;;;;5028931;28;20486;-76
2022/09/11 12:10:29;;;;;;;4.68;3.58;;;17.50;99.90;;;;;;5028634;28;20026;-77
2022/09/11 12:12:59;;;;;;;6.30;3.10;;;18.00;99.90;;;;;;5028060;28;20558;-77
2022/09/11 12:15:29;;;;;;;4.47;2.75;;;18.40;99.90;;;;;;5028651;28;20033;-76
2022/09/11 12:18:14;;;;;;;4.03;2.70;;;18.70;99.90;;;;;;5028051;28;20550;-77
2022/09/11 12:20:41;;;;;;;;;;;18.90;99.90;;;;;;5028059;28;20033;-77
2022/09/11 12:23:29;;;;;;;4.65;2.80;;;19.10;99.90;;;;;;5027838;28;19991;-76
2022/09/11 12:26:09;;;;;;;2.53;2.15;;;19.00;99.90;;;;;;5027746;28;20405;-77
2022/09/11 12:28:36;;;;;;;3.30;1.98;;;18.90;99.90;;;;;;5028174;28;20470;-76
2022/09/11 12:31:13;;;;;;;2.67;2.13;;;18.60;99.90;;;;;;5028462;28;20033;-76
2022/09/11 12:33:42;;;;;;;3.20;2.20;;;18.50;99.90;;;;;;5027917;28;20033;-77
2022/09/11 12:36:11;;;;;;;4.55;2.50;;;18.40;99.90;;;;;;5027966;28;20659;-76
2022/09/11 12:38:46;;;;;;;6.57;2.67;;;18.30;99.90;;;;;;5027528;28;20116;-76
2022/09/11 12:41:34;;;;;;;3.28;2.38;;;18.30;99.90;;;;;;5028047;28;20094;-76
2022/09/11 12:44:01;;;;;;;7.10;2.38;;;18.40;99.90;;;;;;5028047;28;20044;-77
2022/09/11 12:46:27;;;;;;;3.83;2.10;;;18.50;99.90;;;;;;5026809;28;20437;-77
2022/09/11 12:49:04;;;;;;;2.92;2.15;;;18.50;99.90;;;;;;5027529;28;20036;-76
2022/09/11 12:51:32;;;;;;;5.30;2.33;;;18.60;99.90;;;;;;5028322;28;20432;-77
2022/09/11 12:54:26;;;;;;;3.63;2.47;;;18.60;99.90;;;;;;5027372;28;20454;-76
2022/09/11 12:57:08;;;;;;;2.60;2.15;;;18.60;99.90;;;;;;5027003;28;20050;-76
2022/09/11 12:59:43;;;;;;;3.45;2.20;;;18.60;99.90;;;;;;5027387;28;20102;-77
2022/09/11 13:02:38;;;;;;;4.00;2.70;;;18.60;99.90;;;;;;5027957;28;20030;-77
2022/09/11 13:05:14;;;;;;;4.25;2.30;;;18.60;99.90;;;;;;5027570;28;20025;-77
2022/09/11 13:07:47;;;;;;;3.78;2.20;;;18.70;99.90;;;;;;5027511;28;20025;-77
2022/09/11 13:10:32;;;;;;;3.72;2.20;;;18.90;99.90;;;;;;5027721;28;20548;-77
2022/09/11 13:12:58;;;;;;;2.55;1.80;;;19.10;99.90;;;;;;5027473;28;20026;-77